LFTW/FNI METAR and TAF weather

Enter ICAO airport designator
Station Type Date Time Source
LFTW METAR 2019/05/20 11:00 UTC NOAA

LFTW 201100Z AUTO 32010KT 270V360 CAVOK 22/11 Q1009 NOSIG


Station Type Date Time Source
LFTW Decoded METAR 2019/05/20 11:00 UTC NOAA

Nimes / Garons, France (LFTW) 43-45N 004-25E 96M
May 20, 2019 - 07:00 AM EDT / 2019.05.20 1100 UTC
Wind: from the NW (320 degrees) at 12 MPH (10 KT) (direction variable):0
Visibility: greater than 7 mile(s):0
Temperature: 71 F (22 C)
Dew Point: 51 F (11 C)
Relative Humidity: 49%
Pressure (altimeter): 29.80 in. Hg (1009 hPa)
ob: LFTW 201100Z AUTO 32010KT 270V360 CAVOK 22/11 Q1009 NOSIG
cycle: 11

Station Type Date Time Source
LFTW TAF 2019/05/20 09:58 UTC NOAA

TAF LFTW 200800Z 2009/2109 32010KT CAVOK PROB40
TEMPO 2014/2019 34015G25KT SHRA SCT040TCU
TEMPO 2018/2103 VRB05KT

Example: see airport list